General Levalle, Argentina
Current Conditions -  °F | °C
As of 11:00 PM on Saturday 20 Dec 2014 (Local Time) from SAOC Reporting Station
Overcast Overcast  
Wind Chill: 16°   Ceiling: 5000
Heat Index: 16°   Visibility: 6mi
Dew Point:   Wind: 21mph
Humidity: 42%   Direction: 160°SSE
Pressure: 29.85"   Gusts: NA
Location:  34.02°S, 63.93°W
Report Text: SAOC 210200Z 16018KT 9999 SCT030 OVC05016/03 Q1011
Loading
Personal Weather Stations






























Interactive Weather Map New forecast layout! Learn more

10-Day Weather Forecast

Advertisements
Track Severe Weather on mobile